sensor_id;sensor_type;location;lat;lon;timestamp;P1;durP1;ratioP1;P2;durP2;ratioP2
5841;SDS011;2947;52.276;9.946;2023-02-14T00:00:16;32.53;;;14.90;;
5841;SDS011;2947;52.276;9.946;2023-02-14T00:02:43;33.57;;;14.13;;
5841;SDS011;2947;52.276;9.946;2023-02-14T00:05:08;37.40;;;14.73;;
5841;SDS011;2947;52.276;9.946;2023-02-14T00:07:34;33.23;;;14.60;;
5841;SDS011;2947;52.276;9.946;2023-02-14T00:10:00;35.73;;;15.63;;
5841;SDS011;2947;52.276;9.946;2023-02-14T00:12:25;34.53;;;15.47;;
5841;SDS011;2947;52.276;9.946;2023-02-14T00:14:51;38.20;;;15.97;;
5841;SDS011;2947;52.276;9.946;2023-02-14T00:17:35;38.43;;;14.90;;
5841;SDS011;2947;52.276;9.946;2023-02-14T00:20:01;31.47;;;14.30;;
5841;SDS011;2947;52.276;9.946;2023-02-14T00:22:27;35.17;;;15.73;;
5841;SDS011;2947;52.276;9.946;2023-02-14T00:24:52;34.57;;;15.37;;
5841;SDS011;2947;52.276;9.946;2023-02-14T00:27:18;31.60;;;15.03;;
5841;SDS011;2947;52.276;9.946;2023-02-14T00:29:44;32.03;;;15.60;;
5841;SDS011;2947;52.276;9.946;2023-02-14T00:32:09;30.30;;;15.40;;
5841;SDS011;2947;52.276;9.946;2023-02-14T00:34:35;34.20;;;15.20;;
5841;SDS011;2947;52.276;9.946;2023-02-14T00:37:01;30.03;;;13.93;;
5841;SDS011;2947;52.276;9.946;2023-02-14T00:39:28;34.57;;;14.27;;
5841;SDS011;2947;52.276;9.946;2023-02-14T00:41:53;26.73;;;13.00;;
5841;SDS011;2947;52.276;9.946;2023-02-14T00:44:19;33.97;;;14.37;;
5841;SDS011;2947;52.276;9.946;2023-02-14T00:46:45;32.70;;;14.17;;
5841;SDS011;2947;52.276;9.946;2023-02-14T00:49:10;31.73;;;14.40;;
5841;SDS011;2947;52.276;9.946;2023-02-14T00:51:36;31.50;;;14.80;;
5841;SDS011;2947;52.276;9.946;2023-02-14T00:54:02;31.57;;;13.83;;
5841;SDS011;2947;52.276;9.946;2023-02-14T00:56:28;39.73;;;16.23;;
5841;SDS011;2947;52.276;9.946;2023-02-14T00:58:54;29.37;;;13.50;;
5841;SDS011;2947;52.276;9.946;2023-02-14T01:01:20;32.07;;;13.77;;
5841;SDS011;2947;52.276;9.946;2023-02-14T01:03:46;35.47;;;15.10;;
5841;SDS011;2947;52.276;9.946;2023-02-14T01:06:11;33.80;;;13.60;;
5841;SDS011;2947;52.276;9.946;2023-02-14T01:08:37;42.47;;;14.80;;
5841;SDS011;2947;52.276;9.946;2023-02-14T01:11:10;34.97;;;15.37;;
5841;SDS011;2947;52.276;9.946;2023-02-14T01:13:37;35.50;;;15.17;;
5841;SDS011;2947;52.276;9.946;2023-02-14T01:16:04;33.60;;;13.40;;
5841;SDS011;2947;52.276;9.946;2023-02-14T01:18:33;35.60;;;14.80;;
5841;SDS011;2947;52.276;9.946;2023-02-14T01:24:00;31.43;;;13.90;;
5841;SDS011;2947;52.276;9.946;2023-02-14T01:26:29;36.23;;;14.60;;
5841;SDS011;2947;52.276;9.946;2023-02-14T01:28:55;35.83;;;13.97;;
5841;SDS011;2947;52.276;9.946;2023-02-14T01:31:22;31.03;;;14.13;;
5841;SDS011;2947;52.276;9.946;2023-02-14T01:33:50;30.40;;;14.60;;
5841;SDS011;2947;52.276;9.946;2023-02-14T01:36:19;32.17;;;14.60;;
5841;SDS011;2947;52.276;9.946;2023-02-14T01:38:50;31.23;;;14.70;;
5841;SDS011;2947;52.276;9.946;2023-02-14T01:41:22;34.13;;;14.13;;
5841;SDS011;2947;52.276;9.946;2023-02-14T01:43:54;29.70;;;13.73;;
5841;SDS011;2947;52.276;9.946;2023-02-14T01:46:34;36.10;;;14.83;;
5841;SDS011;2947;52.276;9.946;2023-02-14T01:51:49;29.47;;;13.00;;
5841;SDS011;2947;52.276;9.946;2023-02-14T01:54:23;32.87;;;14.20;;
5841;SDS011;2947;52.276;9.946;2023-02-14T01:56:53;26.33;;;13.27;;
5841;SDS011;2947;52.276;9.946;2023-02-14T01:59:24;37.53;;;14.53;;
5841;SDS011;2947;52.276;9.946;2023-02-14T02:01:54;40.90;;;15.07;;
5841;SDS011;2947;52.276;9.946;2023-02-14T02:04:24;30.43;;;12.83;;
5841;SDS011;2947;52.276;9.946;2023-02-14T02:06:58;29.17;;;13.00;;
5841;SDS011;2947;52.276;9.946;2023-02-14T02:09:34;32.37;;;13.23;;
5841;SDS011;2947;52.276;9.946;2023-02-14T02:12:17;31.40;;;13.37;;
5841;SDS011;2947;52.276;9.946;2023-02-14T02:14:43;28.80;;;13.87;;
5841;SDS011;2947;52.276;9.946;2023-02-14T02:25:55;30.77;;;13.80;;
5841;SDS011;2947;52.276;9.946;2023-02-14T02:29:07;27.10;;;11.87;;
5841;SDS011;2947;52.276;9.946;2023-02-14T02:38:12;31.80;;;13.30;;
5841;SDS011;2947;52.276;9.946;2023-02-14T02:41:08;27.23;;;13.53;;
5841;SDS011;2947;52.276;9.946;2023-02-14T02:44:05;28.77;;;13.10;;
5841;SDS011;2947;52.276;9.946;2023-02-14T02:47:00;29.83;;;12.90;;
5841;SDS011;2947;52.276;9.946;2023-02-14T02:53:03;38.63;;;14.00;;
5841;SDS011;2947;52.276;9.946;2023-02-14T02:58:47;35.40;;;12.57;;
5841;SDS011;2947;52.276;9.946;2023-02-14T03:01:20;29.43;;;12.93;;
5841;SDS011;2947;52.276;9.946;2023-02-14T03:03:51;28.47;;;12.87;;
5841;SDS011;2947;52.276;9.946;2023-02-14T03:06:43;28.33;;;12.23;;
5841;SDS011;2947;52.276;9.946;2023-02-14T03:09:10;29.93;;;11.83;;
5841;SDS011;2947;52.276;9.946;2023-02-14T03:14:59;29.17;;;14.07;;
5841;SDS011;2947;52.276;9.946;2023-02-14T03:23:56;39.43;;;7.97;;
5841;SDS011;2947;52.276;9.946;2023-02-14T03:37:50;57.17;;;9.30;;
5841;SDS011;2947;52.276;9.946;2023-02-14T03:40:42;65.17;;;9.50;;
5841;SDS011;2947;52.276;9.946;2023-02-14T03:43:15;128.07;;;12.10;;
5841;SDS011;2947;52.276;9.946;2023-02-14T03:45:55;92.63;;;10.77;;
5841;SDS011;2947;52.276;9.946;2023-02-14T03:48:30;137.57;;;10.87;;
5841;SDS011;2947;52.276;9.946;2023-02-14T03:50:58;167.47;;;10.67;;
5841;SDS011;2947;52.276;9.946;2023-02-14T03:53:27;93.20;;;10.87;;
5841;SDS011;2947;52.276;9.946;2023-02-14T03:56:00;68.40;;;10.10;;
5841;SDS011;2947;52.276;9.946;2023-02-14T03:58:50;59.03;;;9.00;;
5841;SDS011;2947;52.276;9.946;2023-02-14T04:01:22;59.67;;;8.40;;
5841;SDS011;2947;52.276;9.946;2023-02-14T04:03:54;44.93;;;8.97;;
5841;SDS011;2947;52.276;9.946;2023-02-14T04:06:21;31.27;;;7.80;;
5841;SDS011;2947;52.276;9.946;2023-02-14T04:08:47;17.03;;;7.60;;
5841;SDS011;2947;52.276;9.946;2023-02-14T04:11:13;39.20;;;7.30;;
5841;SDS011;2947;52.276;9.946;2023-02-14T04:13:39;36.07;;;7.80;;
5841;SDS011;2947;52.276;9.946;2023-02-14T04:16:05;29.07;;;7.30;;
5841;SDS011;2947;52.276;9.946;2023-02-14T04:18:31;75.83;;;9.77;;
5841;SDS011;2947;52.276;9.946;2023-02-14T04:21:15;15.90;;;7.53;;
5841;SDS011;2947;52.276;9.946;2023-02-14T04:23:41;43.03;;;8.10;;
5841;SDS011;2947;52.276;9.946;2023-02-14T04:26:07;39.37;;;6.90;;
5841;SDS011;2947;52.276;9.946;2023-02-14T04:28:33;44.00;;;8.60;;
5841;SDS011;2947;52.276;9.946;2023-02-14T04:30:59;18.83;;;7.70;;
5841;SDS011;2947;52.276;9.946;2023-02-14T04:33:30;28.43;;;8.07;;
5841;SDS011;2947;52.276;9.946;2023-02-14T04:35:57;17.50;;;8.27;;
5841;SDS011;2947;52.276;9.946;2023-02-14T04:38:24;13.83;;;7.03;;
5841;SDS011;2947;52.276;9.946;2023-02-14T04:40:50;17.20;;;8.10;;
5841;SDS011;2947;52.276;9.946;2023-02-14T04:43:16;19.53;;;7.50;;
5841;SDS011;2947;52.276;9.946;2023-02-14T04:45:43;26.70;;;8.57;;
5841;SDS011;2947;52.276;9.946;2023-02-14T04:48:09;24.80;;;8.60;;
5841;SDS011;2947;52.276;9.946;2023-02-14T04:50:35;23.47;;;9.53;;
5841;SDS011;2947;52.276;9.946;2023-02-14T04:53:01;21.53;;;8.90;;
5841;SDS011;2947;52.276;9.946;2023-02-14T04:55:26;22.50;;;9.30;;
5841;SDS011;2947;52.276;9.946;2023-02-14T04:57:52;24.03;;;8.43;;
5841;SDS011;2947;52.276;9.946;2023-02-14T05:00:18;19.47;;;8.17;;
5841;SDS011;2947;52.276;9.946;2023-02-14T05:02:44;23.97;;;7.00;;
5841;SDS011;2947;52.276;9.946;2023-02-14T05:05:10;41.73;;;6.50;;
5841;SDS011;2947;52.276;9.946;2023-02-14T05:07:35;47.23;;;6.50;;
5841;SDS011;2947;52.276;9.946;2023-02-14T05:10:02;42.73;;;7.60;;
5841;SDS011;2947;52.276;9.946;2023-02-14T05:12:29;25.60;;;7.80;;
5841;SDS011;2947;52.276;9.946;2023-02-14T05:14:54;29.40;;;8.23;;
5841;SDS011;2947;52.276;9.946;2023-02-14T05:17:21;44.93;;;8.50;;
5841;SDS011;2947;52.276;9.946;2023-02-14T05:19:47;36.03;;;8.10;;
5841;SDS011;2947;52.276;9.946;2023-02-14T05:22:13;31.77;;;9.10;;
5841;SDS011;2947;52.276;9.946;2023-02-14T05:24:38;37.93;;;9.83;;
5841;SDS011;2947;52.276;9.946;2023-02-14T05:27:04;23.77;;;8.57;;
5841;SDS011;2947;52.276;9.946;2023-02-14T05:29:31;47.17;;;9.50;;
5841;SDS011;2947;52.276;9.946;2023-02-14T05:31:57;51.37;;;9.30;;
5841;SDS011;2947;52.276;9.946;2023-02-14T05:34:22;38.33;;;10.37;;
5841;SDS011;2947;52.276;9.946;2023-02-14T05:36:48;31.60;;;9.83;;
5841;SDS011;2947;52.276;9.946;2023-02-14T05:39:14;52.37;;;10.07;;
5841;SDS011;2947;52.276;9.946;2023-02-14T05:41:39;32.20;;;9.40;;
5841;SDS011;2947;52.276;9.946;2023-02-14T05:44:05;29.93;;;8.73;;
5841;SDS011;2947;52.276;9.946;2023-02-14T05:46:31;38.60;;;8.97;;
5841;SDS011;2947;52.276;9.946;2023-02-14T05:48:57;28.17;;;8.43;;
5841;SDS011;2947;52.276;9.946;2023-02-14T05:51:23;28.27;;;8.63;;
5841;SDS011;2947;52.276;9.946;2023-02-14T05:53:48;20.20;;;8.10;;
5841;SDS011;2947;52.276;9.946;2023-02-14T05:56:14;19.07;;;7.77;;
5841;SDS011;2947;52.276;9.946;2023-02-14T05:58:40;30.13;;;7.97;;
5841;SDS011;2947;52.276;9.946;2023-02-14T06:01:05;27.20;;;8.20;;
5841;SDS011;2947;52.276;9.946;2023-02-14T06:03:31;22.03;;;7.83;;
5841;SDS011;2947;52.276;9.946;2023-02-14T06:05:57;20.23;;;8.30;;
5841;SDS011;2947;52.276;9.946;2023-02-14T06:08:22;21.10;;;8.20;;
5841;SDS011;2947;52.276;9.946;2023-02-14T06:10:48;31.47;;;8.50;;
5841;SDS011;2947;52.276;9.946;2023-02-14T06:13:14;22.07;;;8.50;;
5841;SDS011;2947;52.276;9.946;2023-02-14T06:15:39;24.10;;;8.47;;
5841;SDS011;2947;52.276;9.946;2023-02-14T06:18:05;33.53;;;7.13;;
5841;SDS011;2947;52.276;9.946;2023-02-14T06:20:31;31.17;;;7.30;;
5841;SDS011;2947;52.276;9.946;2023-02-14T06:22:56;29.13;;;7.80;;
5841;SDS011;2947;52.276;9.946;2023-02-14T06:25:23;18.43;;;8.27;;
5841;SDS011;2947;52.276;9.946;2023-02-14T06:27:50;40.67;;;7.90;;
5841;SDS011;2947;52.276;9.946;2023-02-14T06:30:19;128.50;;;9.37;;
5841;SDS011;2947;52.276;9.946;2023-02-14T06:32:45;35.17;;;7.67;;
5841;SDS011;2947;52.276;9.946;2023-02-14T06:35:11;16.23;;;7.63;;
5841;SDS011;2947;52.276;9.946;2023-02-14T06:37:37;23.43;;;6.80;;
5841;SDS011;2947;52.276;9.946;2023-02-14T06:40:05;13.00;;;6.73;;
5841;SDS011;2947;52.276;9.946;2023-02-14T06:42:32;21.53;;;8.57;;
5841;SDS011;2947;52.276;9.946;2023-02-14T06:44:57;17.33;;;7.80;;
5841;SDS011;2947;52.276;9.946;2023-02-14T06:47:23;17.47;;;8.40;;
5841;SDS011;2947;52.276;9.946;2023-02-14T06:49:49;21.67;;;8.70;;
5841;SDS011;2947;52.276;9.946;2023-02-14T06:52:14;15.07;;;7.47;;
5841;SDS011;2947;52.276;9.946;2023-02-14T06:54:40;17.50;;;8.00;;
5841;SDS011;2947;52.276;9.946;2023-02-14T06:57:06;20.90;;;9.00;;
5841;SDS011;2947;52.276;9.946;2023-02-14T06:59:31;21.53;;;10.07;;
5841;SDS011;2947;52.276;9.946;2023-02-14T07:01:57;18.70;;;8.57;;
5841;SDS011;2947;52.276;9.946;2023-02-14T07:04:23;17.63;;;8.20;;
5841;SDS011;2947;52.276;9.946;2023-02-14T07:06:48;19.47;;;9.53;;
5841;SDS011;2947;52.276;9.946;2023-02-14T07:09:14;19.73;;;8.40;;
5841;SDS011;2947;52.276;9.946;2023-02-14T07:11:41;17.57;;;8.33;;
5841;SDS011;2947;52.276;9.946;2023-02-14T07:14:09;18.13;;;8.10;;
5841;SDS011;2947;52.276;9.946;2023-02-14T07:16:34;15.00;;;7.53;;
5841;SDS011;2947;52.276;9.946;2023-02-14T07:19:00;18.80;;;8.10;;
5841;SDS011;2947;52.276;9.946;2023-02-14T07:21:26;20.00;;;7.73;;
5841;SDS011;2947;52.276;9.946;2023-02-14T07:23:51;18.57;;;8.40;;
5841;SDS011;2947;52.276;9.946;2023-02-14T07:26:17;21.17;;;8.80;;
5841;SDS011;2947;52.276;9.946;2023-02-14T07:28:43;21.50;;;9.30;;
5841;SDS011;2947;52.276;9.946;2023-02-14T07:31:10;22.10;;;8.90;;
5841;SDS011;2947;52.276;9.946;2023-02-14T07:33:37;17.90;;;9.20;;
5841;SDS011;2947;52.276;9.946;2023-02-14T07:36:03;19.30;;;8.90;;
5841;SDS011;2947;52.276;9.946;2023-02-14T07:38:30;22.13;;;9.93;;
5841;SDS011;2947;52.276;9.946;2023-02-14T07:40:56;21.43;;;9.80;;
5841;SDS011;2947;52.276;9.946;2023-02-14T07:43:21;21.17;;;9.20;;
5841;SDS011;2947;52.276;9.946;2023-02-14T07:45:47;25.77;;;10.80;;
5841;SDS011;2947;52.276;9.946;2023-02-14T07:48:12;21.20;;;10.17;;
5841;SDS011;2947;52.276;9.946;2023-02-14T07:50:38;19.93;;;9.70;;
5841;SDS011;2947;52.276;9.946;2023-02-14T07:53:04;29.60;;;10.20;;
5841;SDS011;2947;52.276;9.946;2023-02-14T07:55:32;26.20;;;10.80;;
5841;SDS011;2947;52.276;9.946;2023-02-14T07:57:58;26.17;;;11.50;;
5841;SDS011;2947;52.276;9.946;2023-02-14T08:00:24;30.13;;;13.10;;
5841;SDS011;2947;52.276;9.946;2023-02-14T08:02:49;27.03;;;9.97;;
5841;SDS011;2947;52.276;9.946;2023-02-14T08:05:15;25.80;;;11.13;;
5841;SDS011;2947;52.276;9.946;2023-02-14T08:07:41;26.63;;;11.27;;
5841;SDS011;2947;52.276;9.946;2023-02-14T08:10:08;27.30;;;11.37;;
5841;SDS011;2947;52.276;9.946;2023-02-14T08:12:35;30.23;;;12.30;;
5841;SDS011;2947;52.276;9.946;2023-02-14T08:15:19;28.03;;;10.80;;
5841;SDS011;2947;52.276;9.946;2023-02-14T08:18:03;27.97;;;11.60;;
5841;SDS011;2947;52.276;9.946;2023-02-14T08:20:29;32.60;;;11.60;;
5841;SDS011;2947;52.276;9.946;2023-02-14T08:22:54;29.43;;;12.10;;
5841;SDS011;2947;52.276;9.946;2023-02-14T08:25:20;27.20;;;10.80;;
5841;SDS011;2947;52.276;9.946;2023-02-14T08:27:46;26.03;;;10.83;;
5841;SDS011;2947;52.276;9.946;2023-02-14T08:30:12;29.53;;;11.93;;
5841;SDS011;2947;52.276;9.946;2023-02-14T08:32:38;26.67;;;11.60;;
5841;SDS011;2947;52.276;9.946;2023-02-14T08:35:04;27.87;;;11.30;;
5841;SDS011;2947;52.276;9.946;2023-02-14T08:37:30;28.47;;;12.30;;
5841;SDS011;2947;52.276;9.946;2023-02-14T08:39:56;23.43;;;11.40;;
5841;SDS011;2947;52.276;9.946;2023-02-14T08:42:21;23.90;;;10.93;;
5841;SDS011;2947;52.276;9.946;2023-02-14T08:44:47;25.00;;;11.30;;
5841;SDS011;2947;52.276;9.946;2023-02-14T08:47:13;27.87;;;11.30;;
5841;SDS011;2947;52.276;9.946;2023-02-14T08:49:38;25.77;;;10.90;;
5841;SDS011;2947;52.276;9.946;2023-02-14T08:52:04;27.50;;;12.13;;
5841;SDS011;2947;52.276;9.946;2023-02-14T08:54:30;23.17;;;12.10;;
5841;SDS011;2947;52.276;9.946;2023-02-14T08:56:56;23.40;;;11.47;;
5841;SDS011;2947;52.276;9.946;2023-02-14T08:59:22;26.77;;;11.03;;
5841;SDS011;2947;52.276;9.946;2023-02-14T09:01:47;25.47;;;11.50;;
5841;SDS011;2947;52.276;9.946;2023-02-14T09:04:13;26.50;;;12.07;;
5841;SDS011;2947;52.276;9.946;2023-02-14T09:06:38;23.90;;;10.80;;
5841;SDS011;2947;52.276;9.946;2023-02-14T09:09:05;26.10;;;11.50;;
5841;SDS011;2947;52.276;9.946;2023-02-14T09:11:31;28.07;;;12.33;;
5841;SDS011;2947;52.276;9.946;2023-02-14T09:13:57;27.17;;;12.50;;
5841;SDS011;2947;52.276;9.946;2023-02-14T09:16:23;28.33;;;12.77;;
5841;SDS011;2947;52.276;9.946;2023-02-14T09:18:50;29.80;;;13.50;;
5841;SDS011;2947;52.276;9.946;2023-02-14T09:21:18;40.30;;;14.77;;
5841;SDS011;2947;52.276;9.946;2023-02-14T09:23:49;24.10;;;11.90;;
5841;SDS011;2947;52.276;9.946;2023-02-14T09:26:16;25.13;;;11.93;;
5841;SDS011;2947;52.276;9.946;2023-02-14T09:28:42;31.43;;;13.07;;
5841;SDS011;2947;52.276;9.946;2023-02-14T09:33:43;29.97;;;12.97;;
5841;SDS011;2947;52.276;9.946;2023-02-14T09:36:10;28.40;;;12.93;;
5841;SDS011;2947;52.276;9.946;2023-02-14T09:38:54;24.83;;;12.17;;
5841;SDS011;2947;52.276;9.946;2023-02-14T09:41:29;31.10;;;13.80;;
5841;SDS011;2947;52.276;9.946;2023-02-14T09:44:35;28.90;;;12.97;;
5841;SDS011;2947;52.276;9.946;2023-02-14T09:47:10;26.17;;;13.63;;
5841;SDS011;2947;52.276;9.946;2023-02-14T09:50:05;26.27;;;13.70;;
5841;SDS011;2947;52.276;9.946;2023-02-14T09:52:48;30.27;;;13.13;;
5841;SDS011;2947;52.276;9.946;2023-02-14T09:55:20;28.53;;;13.63;;
5841;SDS011;2947;52.276;9.946;2023-02-14T10:01:17;34.90;;;13.63;;
5841;SDS011;2947;52.276;9.946;2023-02-14T10:04:12;27.27;;;12.93;;
5841;SDS011;2947;52.276;9.946;2023-02-14T10:06:56;22.17;;;12.73;;
5841;SDS011;2947;52.276;9.946;2023-02-14T10:12:33;21.63;;;11.23;;
5841;SDS011;2947;52.276;9.946;2023-02-14T10:15:16;23.40;;;11.57;;
5841;SDS011;2947;52.276;9.946;2023-02-14T10:18:02;23.20;;;11.90;;
5841;SDS011;2947;52.276;9.946;2023-02-14T10:20:41;20.00;;;11.50;;
5841;SDS011;2947;52.276;9.946;2023-02-14T10:25:53;19.27;;;10.20;;
5841;SDS011;2947;52.276;9.946;2023-02-14T10:28:30;21.40;;;10.90;;
5841;SDS011;2947;52.276;9.946;2023-02-14T10:36:28;17.07;;;9.73;;
5841;SDS011;2947;52.276;9.946;2023-02-14T10:42:28;19.13;;;9.60;;
5841;SDS011;2947;52.276;9.946;2023-02-14T10:45:28;18.10;;;10.03;;
5841;SDS011;2947;52.276;9.946;2023-02-14T10:48:10;17.70;;;9.70;;
5841;SDS011;2947;52.276;9.946;2023-02-14T10:51:07;17.17;;;10.03;;
5841;SDS011;2947;52.276;9.946;2023-02-14T10:56:57;17.43;;;9.37;;
5841;SDS011;2947;52.276;9.946;2023-02-14T10:59:31;16.10;;;8.70;;
5841;SDS011;2947;52.276;9.946;2023-02-14T11:02:10;17.47;;;9.07;;
5841;SDS011;2947;52.276;9.946;2023-02-14T11:04:39;19.83;;;10.00;;
5841;SDS011;2947;52.276;9.946;2023-02-14T11:07:13;16.33;;;9.27;;
5841;SDS011;2947;52.276;9.946;2023-02-14T11:09:41;19.30;;;9.87;;
5841;SDS011;2947;52.276;9.946;2023-02-14T11:12:07;14.83;;;8.30;;
5841;SDS011;2947;52.276;9.946;2023-02-14T11:14:34;13.40;;;7.73;;
5841;SDS011;2947;52.276;9.946;2023-02-14T11:20:02;14.90;;;8.83;;
5841;SDS011;2947;52.276;9.946;2023-02-14T11:22:49;13.87;;;8.50;;
5841;SDS011;2947;52.276;9.946;2023-02-14T11:25:22;17.10;;;10.10;;
5841;SDS011;2947;52.276;9.946;2023-02-14T11:28:01;17.03;;;8.57;;
5841;SDS011;2947;52.276;9.946;2023-02-14T11:30:35;13.80;;;9.10;;
5841;SDS011;2947;52.276;9.946;2023-02-14T11:33:04;14.00;;;8.40;;
5841;SDS011;2947;52.276;9.946;2023-02-14T11:35:34;16.00;;;9.03;;
5841;SDS011;2947;52.276;9.946;2023-02-14T11:38:02;16.80;;;8.70;;
5841;SDS011;2947;52.276;9.946;2023-02-14T11:40:32;13.23;;;8.13;;
5841;SDS011;2947;52.276;9.946;2023-02-14T11:48:57;18.80;;;10.20;;
5841;SDS011;2947;52.276;9.946;2023-02-14T11:51:33;16.47;;;9.40;;
5841;SDS011;2947;52.276;9.946;2023-02-14T11:54:12;15.43;;;9.03;;
5841;SDS011;2947;52.276;9.946;2023-02-14T11:56:53;16.13;;;9.70;;
5841;SDS011;2947;52.276;9.946;2023-02-14T11:59:30;15.10;;;9.77;;
5841;SDS011;2947;52.276;9.946;2023-02-14T12:02:12;15.33;;;8.00;;
5841;SDS011;2947;52.276;9.946;2023-02-14T12:04:47;18.83;;;9.87;;
5841;SDS011;2947;52.276;9.946;2023-02-14T12:07:24;15.17;;;10.10;;
5841;SDS011;2947;52.276;9.946;2023-02-14T12:10:08;18.30;;;9.20;;
5841;SDS011;2947;52.276;9.946;2023-02-14T12:13:01;14.87;;;8.90;;
5841;SDS011;2947;52.276;9.946;2023-02-14T12:26:57;18.30;;;8.10;;
5841;SDS011;2947;52.276;9.946;2023-02-14T12:30:01;13.73;;;9.17;;
5841;SDS011;2947;52.276;9.946;2023-02-14T12:32:43;13.17;;;8.17;;
5841;SDS011;2947;52.276;9.946;2023-02-14T12:35:16;13.90;;;8.30;;
5841;SDS011;2947;52.276;9.946;2023-02-14T12:38:10;15.80;;;7.93;;
5841;SDS011;2947;52.276;9.946;2023-02-14T12:47:26;11.20;;;6.40;;
5841;SDS011;2947;52.276;9.946;2023-02-14T12:50:35;15.13;;;7.57;;
5841;SDS011;2947;52.276;9.946;2023-02-14T12:56:09;11.83;;;7.07;;
5841;SDS011;2947;52.276;9.946;2023-02-14T12:59:12;15.43;;;6.50;;
5841;SDS011;2947;52.276;9.946;2023-02-14T13:08:22;10.30;;;5.57;;
5841;SDS011;2947;52.276;9.946;2023-02-14T13:11:03;10.02;;;5.65;;
5841;SDS011;2947;52.276;9.946;2023-02-14T13:13:44;10.63;;;5.47;;
5841;SDS011;2947;52.276;9.946;2023-02-14T13:19:30;9.40;;;4.43;;
5841;SDS011;2947;52.276;9.946;2023-02-14T13:22:07;5.97;;;4.35;;
5841;SDS011;2947;52.276;9.946;2023-02-14T13:24:47;6.30;;;3.80;;
5841;SDS011;2947;52.276;9.946;2023-02-14T13:27:19;7.70;;;4.60;;
5841;SDS011;2947;52.276;9.946;2023-02-14T13:29:49;6.03;;;3.38;;
5841;SDS011;2947;52.276;9.946;2023-02-14T13:32:31;5.25;;;3.00;;
5841;SDS011;2947;52.276;9.946;2023-02-14T13:35:13;5.53;;;3.70;;
5841;SDS011;2947;52.276;9.946;2023-02-14T13:37:47;4.70;;;3.08;;
5841;SDS011;2947;52.276;9.946;2023-02-14T13:40:24;4.43;;;2.85;;
5841;SDS011;2947;52.276;9.946;2023-02-14T13:42:52;3.60;;;2.60;;
5841;SDS011;2947;52.276;9.946;2023-02-14T13:48:03;4.35;;;2.60;;
5841;SDS011;2947;52.276;9.946;2023-02-14T13:50:49;7.18;;;3.00;;
5841;SDS011;2947;52.276;9.946;2023-02-14T13:53:35;4.35;;;3.00;;
5841;SDS011;2947;52.276;9.946;2023-02-14T13:58:45;4.30;;;2.28;;
5841;SDS011;2947;52.276;9.946;2023-02-14T14:01:41;3.90;;;1.88;;
5841;SDS011;2947;52.276;9.946;2023-02-14T14:20:01;8.00;;;4.47;;
5841;SDS011;2947;52.276;9.946;2023-02-14T14:22:52;4.85;;;3.38;;
5841;SDS011;2947;52.276;9.946;2023-02-14T14:25:33;6.35;;;4.28;;
5841;SDS011;2947;52.276;9.946;2023-02-14T14:28:21;5.95;;;3.42;;
5841;SDS011;2947;52.276;9.946;2023-02-14T14:30:50;19.15;;;4.28;;
5841;SDS011;2947;52.276;9.946;2023-02-14T14:35:59;11.32;;;6.90;;
5841;SDS011;2947;52.276;9.946;2023-02-14T14:38:29;12.40;;;6.57;;
5841;SDS011;2947;52.276;9.946;2023-02-14T14:40:56;13.30;;;7.17;;
5841;SDS011;2947;52.276;9.946;2023-02-14T14:43:31;16.93;;;8.47;;
5841;SDS011;2947;52.276;9.946;2023-02-14T14:45:58;16.13;;;8.97;;
5841;SDS011;2947;52.276;9.946;2023-02-14T14:48:29;14.52;;;8.18;;
5841;SDS011;2947;52.276;9.946;2023-02-14T14:51:02;12.77;;;7.63;;
5841;SDS011;2947;52.276;9.946;2023-02-14T14:53:34;13.40;;;7.50;;
5841;SDS011;2947;52.276;9.946;2023-02-14T14:56:24;13.27;;;7.60;;
5841;SDS011;2947;52.276;9.946;2023-02-14T14:58:53;13.07;;;7.63;;
5841;SDS011;2947;52.276;9.946;2023-02-14T15:01:27;10.90;;;6.60;;
5841;SDS011;2947;52.276;9.946;2023-02-14T15:04:18;15.07;;;7.80;;
5841;SDS011;2947;52.276;9.946;2023-02-14T15:06:54;12.53;;;7.33;;
5841;SDS011;2947;52.276;9.946;2023-02-14T15:09:22;12.50;;;8.20;;
5841;SDS011;2947;52.276;9.946;2023-02-14T15:11:57;11.93;;;6.80;;
5841;SDS011;2947;52.276;9.946;2023-02-14T15:14:44;13.80;;;6.70;;
5841;SDS011;2947;52.276;9.946;2023-02-14T15:17:19;15.00;;;7.43;;
5841;SDS011;2947;52.276;9.946;2023-02-14T15:19:53;10.70;;;7.03;;
5841;SDS011;2947;52.276;9.946;2023-02-14T15:25:09;14.13;;;8.40;;
5841;SDS011;2947;52.276;9.946;2023-02-14T15:27:56;11.90;;;7.60;;
5841;SDS011;2947;52.276;9.946;2023-02-14T15:30:27;11.10;;;7.27;;
5841;SDS011;2947;52.276;9.946;2023-02-14T15:33:01;13.57;;;7.93;;
5841;SDS011;2947;52.276;9.946;2023-02-14T15:35:30;12.07;;;6.90;;
5841;SDS011;2947;52.276;9.946;2023-02-14T15:38:00;12.10;;;7.60;;
5841;SDS011;2947;52.276;9.946;2023-02-14T15:40:29;11.50;;;7.50;;
5841;SDS011;2947;52.276;9.946;2023-02-14T15:43:11;10.40;;;6.73;;
5841;SDS011;2947;52.276;9.946;2023-02-14T15:45:51;13.37;;;7.97;;
5841;SDS011;2947;52.276;9.946;2023-02-14T15:50:58;15.27;;;8.63;;
5841;SDS011;2947;52.276;9.946;2023-02-14T15:56:01;14.17;;;7.90;;
5841;SDS011;2947;52.276;9.946;2023-02-14T15:58:34;15.07;;;7.83;;
5841;SDS011;2947;52.276;9.946;2023-02-14T16:01:02;11.83;;;7.17;;
5841;SDS011;2947;52.276;9.946;2023-02-14T16:03:31;11.03;;;7.13;;
5841;SDS011;2947;52.276;9.946;2023-02-14T16:06:01;13.00;;;8.10;;
5841;SDS011;2947;52.276;9.946;2023-02-14T16:08:31;13.17;;;7.87;;
5841;SDS011;2947;52.276;9.946;2023-02-14T16:11:45;14.47;;;8.57;;
5841;SDS011;2947;52.276;9.946;2023-02-14T16:14:03;14.37;;;9.40;;
5841;SDS011;2947;52.276;9.946;2023-02-14T16:19:30;15.67;;;8.70;;
5841;SDS011;2947;52.276;9.946;2023-02-14T16:22:02;16.00;;;8.60;;
5841;SDS011;2947;52.276;9.946;2023-02-14T16:24:28;18.00;;;10.30;;
5841;SDS011;2947;52.276;9.946;2023-02-14T16:26:54;17.90;;;9.57;;
5841;SDS011;2947;52.276;9.946;2023-02-14T16:29:20;15.80;;;9.80;;
5841;SDS011;2947;52.276;9.946;2023-02-14T16:31:53;17.50;;;9.03;;
5841;SDS011;2947;52.276;9.946;2023-02-14T16:34:20;20.00;;;10.10;;
5841;SDS011;2947;52.276;9.946;2023-02-14T16:36:46;16.10;;;9.70;;
5841;SDS011;2947;52.276;9.946;2023-02-14T16:39:16;16.70;;;9.90;;
5841;SDS011;2947;52.276;9.946;2023-02-14T16:41:45;19.70;;;10.63;;
5841;SDS011;2947;52.276;9.946;2023-02-14T16:44:12;18.47;;;10.27;;
5841;SDS011;2947;52.276;9.946;2023-02-14T16:46:43;15.20;;;8.93;;
5841;SDS011;2947;52.276;9.946;2023-02-14T16:49:10;19.77;;;10.67;;
5841;SDS011;2947;52.276;9.946;2023-02-14T16:51:38;16.53;;;9.10;;
5841;SDS011;2947;52.276;9.946;2023-02-14T16:54:10;18.73;;;10.47;;
5841;SDS011;2947;52.276;9.946;2023-02-14T16:56:51;18.67;;;10.70;;
5841;SDS011;2947;52.276;9.946;2023-02-14T16:59:21;17.43;;;10.53;;
5841;SDS011;2947;52.276;9.946;2023-02-14T17:01:47;24.40;;;11.77;;
5841;SDS011;2947;52.276;9.946;2023-02-14T17:04:13;18.37;;;10.13;;
5841;SDS011;2947;52.276;9.946;2023-02-14T17:06:39;16.10;;;10.70;;
5841;SDS011;2947;52.276;9.946;2023-02-14T17:09:11;16.93;;;10.70;;
5841;SDS011;2947;52.276;9.946;2023-02-14T17:11:42;23.30;;;11.27;;
5841;SDS011;2947;52.276;9.946;2023-02-14T17:14:13;21.90;;;11.60;;
5841;SDS011;2947;52.276;9.946;2023-02-14T17:16:44;20.27;;;11.20;;
5841;SDS011;2947;52.276;9.946;2023-02-14T17:19:10;18.97;;;11.60;;
5841;SDS011;2947;52.276;9.946;2023-02-14T17:21:36;21.63;;;12.30;;
5841;SDS011;2947;52.276;9.946;2023-02-14T17:24:02;18.80;;;10.77;;
5841;SDS011;2947;52.276;9.946;2023-02-14T17:26:28;23.00;;;12.00;;
5841;SDS011;2947;52.276;9.946;2023-02-14T17:28:54;19.50;;;11.40;;
5841;SDS011;2947;52.276;9.946;2023-02-14T17:31:19;20.07;;;11.93;;
5841;SDS011;2947;52.276;9.946;2023-02-14T17:33:45;20.03;;;12.10;;
5841;SDS011;2947;52.276;9.946;2023-02-14T17:36:12;22.20;;;11.20;;
5841;SDS011;2947;52.276;9.946;2023-02-14T17:38:39;24.53;;;13.07;;
5841;SDS011;2947;52.276;9.946;2023-02-14T17:41:15;22.53;;;12.77;;
5841;SDS011;2947;52.276;9.946;2023-02-14T17:43:45;20.47;;;12.23;;
5841;SDS011;2947;52.276;9.946;2023-02-14T17:46:11;21.90;;;12.40;;